createdAt,value
2019-02-20T00:00:08.939Z,5.10
2019-02-20T00:02:37.497Z,5.08
2019-02-20T00:05:06.117Z,5.04
2019-02-20T00:07:34.649Z,4.99
2019-02-20T00:10:03.312Z,4.97
2019-02-20T00:12:31.959Z,4.95
2019-02-20T00:15:00.454Z,4.91
2019-02-20T00:17:28.934Z,4.87
2019-02-20T00:19:57.454Z,4.79
2019-02-20T00:22:25.951Z,4.73
2019-02-20T00:24:54.402Z,4.66
2019-02-20T00:27:23.062Z,4.58
2019-02-20T00:29:51.693Z,4.47
2019-02-20T00:32:20.192Z,4.35
2019-02-20T00:34:48.705Z,4.31
2019-02-20T00:37:17.239Z,4.30
2019-02-20T00:39:45.723Z,4.29
2019-02-20T00:42:14.343Z,4.29
2019-02-20T00:44:44.466Z,4.30
2019-02-20T00:47:32.887Z,4.28
2019-02-20T00:50:01.381Z,4.24
2019-02-20T00:52:50.624Z,4.23
2019-02-20T00:55:19.294Z,4.21
2019-02-20T00:57:47.831Z,4.19
2019-02-20T01:00:16.727Z,4.18
2019-02-20T01:02:45.364Z,4.18
2019-02-20T01:05:13.967Z,4.19
2019-02-20T01:07:42.483Z,4.22
2019-02-20T01:10:11.099Z,4.27
2019-02-20T01:12:41.290Z,4.31
2019-02-20T01:15:11.323Z,4.37
2019-02-20T01:17:39.984Z,4.41
2019-02-20T01:20:10.480Z,4.46
2019-02-20T01:22:38.949Z,4.52
2019-02-20T01:25:07.646Z,4.57
2019-02-20T01:27:36.138Z,4.59
2019-02-20T01:30:07.475Z,4.61
2019-02-20T01:32:36.007Z,4.63
2019-02-20T01:35:04.997Z,4.63
2019-02-20T01:37:33.481Z,4.62
2019-02-20T01:40:02.014Z,4.62
2019-02-20T01:42:30.458Z,4.60
2019-02-20T01:44:58.959Z,4.60
2019-02-20T01:47:27.424Z,4.59
2019-02-20T01:49:55.929Z,4.59
2019-02-20T01:52:24.469Z,4.61
2019-02-20T01:54:53.025Z,4.61
2019-02-20T01:57:21.509Z,4.63
2019-02-20T01:59:50.436Z,4.66
2019-02-20T02:02:18.890Z,4.70
2019-02-20T02:04:47.477Z,4.74
2019-02-20T02:07:15.964Z,4.78
2019-02-20T02:09:44.478Z,4.84
2019-02-20T02:12:12.968Z,4.88
2019-02-20T02:14:41.442Z,4.93
2019-02-20T02:17:09.996Z,4.98
2019-02-20T02:19:38.558Z,5.03
2019-02-20T02:22:07.216Z,5.07
2019-02-20T02:24:35.881Z,5.10
2019-02-20T02:27:04.608Z,5.09
2019-02-20T02:29:33.068Z,5.11
2019-02-20T02:32:01.683Z,5.14
2019-02-20T02:34:30.139Z,5.16
2019-02-20T02:36:58.692Z,5.20
2019-02-20T02:39:27.180Z,5.22
2019-02-20T02:41:55.662Z,5.24
2019-02-20T02:44:24.259Z,5.24
2019-02-20T02:46:52.742Z,5.23
2019-02-20T02:49:21.333Z,5.25
2019-02-20T02:51:49.836Z,5.26
2019-02-20T02:54:18.389Z,5.27
2019-02-20T02:56:46.924Z,5.26
2019-02-20T02:59:15.476Z,5.27
2019-02-20T03:01:43.964Z,5.27
2019-02-20T03:04:12.444Z,5.26
2019-02-20T03:06:40.918Z,5.26
2019-02-20T03:09:10.351Z,5.28
2019-02-20T03:11:38.810Z,5.31
2019-02-20T03:14:07.386Z,5.33
2019-02-20T03:16:35.912Z,5.34
2019-02-20T03:19:04.454Z,5.35
2019-02-20T03:21:32.931Z,5.36
2019-02-20T03:24:01.829Z,5.38
2019-02-20T03:26:30.445Z,5.38
2019-02-20T03:28:59.095Z,5.39
2019-02-20T03:31:27.859Z,5.39
2019-02-20T03:33:56.320Z,5.37
2019-02-20T03:36:24.805Z,5.35
2019-02-20T03:38:53.258Z,5.33
2019-02-20T03:41:21.759Z,5.31
2019-02-20T03:43:50.213Z,5.29
2019-02-20T03:46:18.673Z,5.26
2019-02-20T03:48:47.178Z,5.23
2019-02-20T03:51:15.637Z,5.18
2019-02-20T03:53:51.670Z,5.14
2019-02-20T03:56:14.635Z,5.13
2019-02-20T03:58:43.154Z,5.11
2019-02-20T04:01:11.639Z,5.10
2019-02-20T04:03:40.177Z,5.11
2019-02-20T04:06:08.661Z,5.12
2019-02-20T04:08:37.280Z,5.13
2019-02-20T04:11:05.766Z,5.17
2019-02-20T04:13:34.410Z,5.20
2019-02-20T04:16:02.932Z,5.22
2019-02-20T04:18:31.415Z,5.25
2019-02-20T04:20:59.976Z,5.28
2019-02-20T04:23:28.466Z,5.27
2019-02-20T04:25:56.918Z,5.28
2019-02-20T04:28:25.402Z,5.28
2019-02-20T04:30:53.879Z,5.28
2019-02-20T04:33:22.436Z,5.28
2019-02-20T04:35:50.892Z,5.28
2019-02-20T04:38:19.384Z,5.27
2019-02-20T04:40:47.908Z,5.29
2019-02-20T04:43:16.387Z,5.29
2019-02-20T04:45:44.930Z,5.30
2019-02-20T04:48:13.460Z,5.31
2019-02-20T04:50:42.301Z,5.32
2019-02-20T04:53:10.747Z,5.33
2019-02-20T04:55:39.332Z,5.35
2019-02-20T04:58:15.983Z,5.35
2019-02-20T05:00:44.586Z,5.35
2019-02-20T05:03:13.149Z,5.33
2019-02-20T05:05:41.862Z,5.32
2019-02-20T05:08:10.452Z,5.30
2019-02-20T05:10:39.001Z,5.27
2019-02-20T05:13:07.735Z,5.25
2019-02-20T05:15:36.262Z,5.25
2019-02-20T05:18:04.786Z,5.23
2019-02-20T05:20:34.095Z,5.23
2019-02-20T05:23:02.547Z,5.22
2019-02-20T05:25:31.009Z,5.19
2019-02-20T05:27:59.529Z,5.17
2019-02-20T05:30:28.006Z,5.15
2019-02-20T05:32:56.755Z,5.13
2019-02-20T05:35:25.248Z,5.10
2019-02-20T05:37:53.781Z,5.07
2019-02-20T05:40:22.523Z,5.05
2019-02-20T05:42:51.240Z,5.04
2019-02-20T05:45:19.887Z,5.00
2019-02-20T05:47:48.388Z,4.96
2019-02-20T05:50:16.838Z,4.89
2019-02-20T05:52:45.318Z,4.84
2019-02-20T05:55:13.830Z,4.76
2019-02-20T05:57:42.344Z,4.70
2019-02-20T06:00:12.922Z,4.65
2019-02-20T06:02:44.424Z,4.58
2019-02-20T06:05:13.048Z,4.53
2019-02-20T06:07:44.487Z,4.44
2019-02-20T06:10:13.082Z,4.34
2019-02-20T06:12:41.627Z,4.27
2019-02-20T06:15:10.590Z,4.20
2019-02-20T06:17:39.144Z,4.12
2019-02-20T06:20:11.909Z,4.03
2019-02-20T06:22:40.328Z,3.95
2019-02-20T06:25:09.159Z,3.84
2019-02-20T06:27:37.598Z,3.74
2019-02-20T06:30:09.362Z,3.63
2019-02-20T06:32:37.834Z,3.53
2019-02-20T06:35:07.209Z,3.46
2019-02-20T06:37:35.738Z,3.44
2019-02-20T06:40:07.332Z,3.46
2019-02-20T06:42:35.889Z,3.49
2019-02-20T06:45:07.317Z,3.50
2019-02-20T06:47:35.961Z,3.52
2019-02-20T06:50:06.157Z,3.57
2019-02-20T06:52:34.697Z,3.63
2019-02-20T06:55:03.447Z,3.70
2019-02-20T06:57:31.867Z,3.80
2019-02-20T07:00:00.475Z,3.89
2019-02-20T07:02:29.336Z,3.98
2019-02-20T07:05:26.381Z,4.10
2019-02-20T07:08:14.676Z,4.23
2019-02-20T07:10:54.962Z,4.38
2019-02-20T07:13:26.512Z,4.51
2019-02-20T07:16:16.354Z,4.63
2019-02-20T07:18:53.919Z,4.76
2019-02-20T07:21:27.881Z,4.91
2019-02-20T07:24:14.608Z,5.02
2019-02-20T07:26:47.104Z,5.14
2019-02-20T07:29:43.902Z,5.24
2019-02-20T07:32:17.833Z,5.35
2019-02-20T07:34:46.288Z,5.45
2019-02-20T07:37:14.828Z,5.54
2019-02-20T07:39:43.367Z,5.61
2019-02-20T07:42:12.064Z,5.68
2019-02-20T07:44:40.571Z,5.74
2019-02-20T07:47:09.195Z,5.81
2019-02-20T07:49:37.640Z,5.87
2019-02-20T07:52:06.204Z,5.91
2019-02-20T07:54:34.774Z,6.00
2019-02-20T07:57:03.359Z,6.04
2019-02-20T07:59:31.880Z,6.09
2019-02-20T08:02:00.607Z,6.13
2019-02-20T08:04:29.246Z,6.17
2019-02-20T08:06:57.700Z,6.25
2019-02-20T08:09:26.183Z,6.31
2019-02-20T08:11:54.760Z,6.40
2019-02-20T08:14:23.273Z,6.55
2019-02-20T08:16:52.868Z,6.69
2019-02-20T08:19:22.056Z,7.02
2019-02-20T08:21:50.733Z,7.02
2019-02-20T08:24:19.219Z,7.20
2019-02-20T08:26:47.803Z,7.34
2019-02-20T08:29:16.652Z,7.50
2019-02-20T08:31:45.198Z,7.63
2019-02-20T08:34:14.021Z,7.72
2019-02-20T08:36:42.509Z,7.82
2019-02-20T08:39:11.221Z,7.91
2019-02-20T08:41:39.740Z,7.97
2019-02-20T08:44:08.503Z,8.00
2019-02-20T08:46:37.135Z,8.05
2019-02-20T08:49:05.758Z,8.08
2019-02-20T08:51:34.242Z,8.04
2019-02-20T08:54:04.417Z,8.08
2019-02-20T08:56:33.003Z,8.11
2019-02-20T08:59:01.773Z,8.11
2019-02-20T09:04:58.681Z,8.17
2019-02-20T09:07:27.255Z,8.20
2019-02-20T09:09:55.792Z,8.28
2019-02-20T09:12:24.255Z,8.63
2019-02-20T09:14:52.831Z,8.63
2019-02-20T09:17:21.662Z,8.92
2019-02-20T09:19:50.557Z,9.19
2019-02-20T09:22:19.091Z,9.32
2019-02-20T09:24:47.812Z,9.41
2019-02-20T09:27:16.272Z,9.55
2019-02-20T09:29:44.750Z,9.64
2019-02-20T09:32:13.308Z,9.74
2019-02-20T09:34:41.752Z,9.80
2019-02-20T09:37:10.284Z,9.82
2019-02-20T09:39:39.146Z,9.80
2019-02-20T09:42:08.169Z,9.87
2019-02-20T09:44:42.763Z,10.00
2019-02-20T09:47:11.408Z,10.03
2019-02-20T09:49:40.109Z,10.12
2019-02-20T09:52:08.651Z,10.11
2019-02-20T09:54:37.135Z,10.23
2019-02-20T09:57:05.685Z,10.29
2019-02-20T09:59:34.194Z,10.29
2019-02-20T10:02:02.833Z,10.26
2019-02-20T10:04:31.735Z,10.20
2019-02-20T10:07:00.385Z,10.18
2019-02-20T10:09:28.864Z,10.31
2019-02-20T10:11:57.526Z,10.48
2019-02-20T10:14:26.174Z,10.70
2019-02-20T10:16:54.720Z,10.77
2019-02-20T10:19:23.306Z,10.73
2019-02-20T10:21:51.806Z,10.66
2019-02-20T10:24:20.445Z,10.54
2019-02-20T10:26:48.916Z,10.55
2019-02-20T10:29:17.414Z,10.62
2019-02-20T10:31:45.948Z,10.64
2019-02-20T10:34:14.723Z,10.60
2019-02-20T10:36:43.252Z,10.66
2019-02-20T10:39:11.786Z,10.82
2019-02-20T10:41:40.522Z,10.89
2019-02-20T10:44:09.002Z,10.97
2019-02-20T10:46:37.474Z,11.03
2019-02-20T10:49:06.266Z,11.01
2019-02-20T10:51:34.877Z,11.12
2019-02-20T10:54:03.334Z,11.26
2019-02-20T10:56:32.012Z,11.45
2019-02-20T10:59:00.732Z,11.67
2019-02-20T11:01:29.282Z,11.70
2019-02-20T11:03:57.855Z,11.66
2019-02-20T11:06:26.388Z,11.56
2019-02-20T11:08:54.917Z,11.60
2019-02-20T11:11:23.693Z,11.70
2019-02-20T11:13:52.204Z,11.72
2019-02-20T11:16:20.680Z,11.69
2019-02-20T11:18:49.435Z,11.71
2019-02-20T11:21:17.999Z,11.77
2019-02-20T11:23:46.458Z,11.75
2019-02-20T11:26:18.196Z,11.73
2019-02-20T11:28:45.268Z,11.82
2019-02-20T11:31:13.923Z,11.92
2019-02-20T11:33:42.471Z,11.97
2019-02-20T11:36:10.950Z,12.01
2019-02-20T11:38:39.406Z,11.94
2019-02-20T11:41:07.900Z,11.85
2019-02-20T11:43:36.431Z,11.78
2019-02-20T11:46:05.055Z,11.65
2019-02-20T11:48:33.517Z,11.62
2019-02-20T11:51:02.118Z,11.56
2019-02-20T11:53:36.998Z,11.61
2019-02-20T11:56:01.013Z,11.70
2019-02-20T11:58:29.476Z,11.75
2019-02-20T12:00:58.003Z,11.79
2019-02-20T12:03:26.569Z,11.83
2019-02-20T12:05:55.159Z,11.81
2019-02-20T12:08:23.913Z,11.82
2019-02-20T12:10:52.528Z,11.84
2019-02-20T12:13:21.071Z,11.84
2019-02-20T12:15:49.584Z,11.77
2019-02-20T12:18:18.494Z,11.72
2019-02-20T12:20:47.374Z,11.61
2019-02-20T12:23:16.074Z,11.54
2019-02-20T12:25:44.660Z,11.46
2019-02-20T12:28:13.263Z,11.35
2019-02-20T12:30:41.897Z,11.25
2019-02-20T12:33:10.436Z,11.24
2019-02-20T12:35:39.036Z,11.35
2019-02-20T12:38:07.730Z,11.59
2019-02-20T12:40:36.408Z,11.84
2019-02-20T12:43:04.986Z,11.93
2019-02-20T12:45:33.513Z,11.95
2019-02-20T12:48:02.357Z,12.04
2019-02-20T12:50:30.843Z,12.16
2019-02-20T12:52:59.422Z,12.24
2019-02-20T12:55:28.056Z,12.25
2019-02-20T12:57:56.906Z,12.19
2019-02-20T13:00:25.518Z,12.21
2019-02-20T13:02:54.115Z,12.16
2019-02-20T13:05:22.751Z,12.22
2019-02-20T13:07:51.627Z,12.37
2019-02-20T13:10:20.255Z,12.54
2019-02-20T13:12:49.047Z,12.67
2019-02-20T13:15:17.739Z,12.63
2019-02-20T13:17:46.559Z,12.59
2019-02-20T13:20:15.232Z,12.57
2019-02-20T13:22:43.859Z,12.57
2019-02-20T13:25:12.991Z,12.62
2019-02-20T13:27:41.637Z,12.60
2019-02-20T13:30:12.565Z,12.47
2019-02-20T13:32:41.018Z,12.39
2019-02-20T13:35:10.016Z,12.33
2019-02-20T13:37:38.593Z,12.26
2019-02-20T13:40:10.217Z,12.17
2019-02-20T13:42:38.869Z,12.13
2019-02-20T13:45:08.899Z,12.10
2019-02-20T13:47:37.604Z,12.02
2019-02-20T13:50:11.832Z,11.96
2019-02-20T13:52:40.891Z,11.89
2019-02-20T13:55:09.787Z,11.74
2019-02-20T13:57:38.423Z,11.65
2019-02-20T14:00:10.190Z,11.62
2019-02-20T14:02:38.743Z,11.61
2019-02-20T14:05:08.846Z,11.63
2019-02-20T14:07:37.410Z,11.76
2019-02-20T14:10:11.370Z,11.89
2019-02-20T14:12:39.923Z,11.95
2019-02-20T14:15:11.232Z,11.95
2019-02-20T14:17:39.722Z,11.91
2019-02-20T14:20:10.795Z,11.86
2019-02-20T14:22:40.022Z,11.79
2019-02-20T14:25:10.223Z,11.76
2019-02-20T14:27:38.776Z,11.73
2019-02-20T14:30:12.196Z,11.68
2019-02-20T14:32:40.684Z,11.66
2019-02-20T14:35:11.310Z,11.63
2019-02-20T14:37:41.362Z,11.63
2019-02-20T14:40:10.897Z,11.68
2019-02-20T14:42:39.519Z,11.72
2019-02-20T14:45:10.993Z,11.74
2019-02-20T14:47:39.728Z,11.73
2019-02-20T14:50:12.705Z,11.74
2019-02-20T14:52:41.392Z,11.74
2019-02-20T14:55:11.006Z,11.75
2019-02-20T14:57:39.790Z,11.68
2019-02-20T15:00:13.806Z,11.59
2019-02-20T15:02:41.622Z,11.54
2019-02-20T15:05:11.982Z,11.41
2019-02-20T15:07:40.782Z,11.38
2019-02-20T15:10:10.393Z,11.29
2019-02-20T15:12:38.899Z,11.24
2019-02-20T15:15:10.981Z,11.17
2019-02-20T15:17:39.579Z,11.11
2019-02-20T15:20:11.096Z,11.07
2019-02-20T15:22:39.993Z,11.04
2019-02-20T15:25:09.678Z,11.00
2019-02-20T15:27:38.466Z,10.96
2019-02-20T15:30:17.205Z,10.90
2019-02-20T15:32:46.060Z,10.83
2019-02-20T15:35:15.061Z,10.75
2019-02-20T15:37:43.701Z,10.68
2019-02-20T15:40:12.409Z,10.61
2019-02-20T15:42:40.975Z,10.56
2019-02-20T15:45:11.098Z,10.51
2019-02-20T15:47:39.761Z,10.47
2019-02-20T15:50:11.439Z,10.42
2019-02-20T15:52:40.039Z,10.37
2019-02-20T15:55:11.433Z,10.32
2019-02-20T15:57:41.633Z,10.27
2019-02-20T16:00:13.551Z,10.21
2019-02-20T16:02:42.031Z,10.15
2019-02-20T16:05:10.929Z,10.09
2019-02-20T16:07:39.487Z,10.01
2019-02-20T16:10:09.869Z,9.97
2019-02-20T16:12:38.553Z,9.91
2019-02-20T16:15:09.556Z,9.85
2019-02-20T16:17:38.158Z,9.79
2019-02-20T16:20:09.580Z,9.73
2019-02-20T16:22:38.261Z,9.67
2019-02-20T16:25:12.254Z,9.61
2019-02-20T16:27:46.738Z,9.54
2019-02-20T16:30:15.022Z,9.44
2019-02-20T16:32:43.642Z,9.31
2019-02-20T16:35:12.944Z,9.31
2019-02-20T16:37:41.752Z,9.28
2019-02-20T16:40:15.199Z,9.25
2019-02-20T16:42:43.802Z,9.21
2019-02-20T16:45:23.501Z,9.17
2019-02-20T16:47:52.511Z,9.15
2019-02-20T16:50:21.116Z,9.11
2019-02-20T16:52:49.711Z,9.06
2019-02-20T16:55:19.731Z,9.02
2019-02-20T16:57:56.160Z,9.00
2019-02-20T17:00:21.640Z,8.95
2019-02-20T17:02:50.743Z,8.90
2019-02-20T17:05:19.689Z,8.85
2019-02-20T17:07:48.215Z,8.79
2019-02-20T17:10:17.339Z,8.72
2019-02-20T17:12:46.068Z,8.66
2019-02-20T17:15:16.502Z,8.60
2019-02-20T17:17:45.296Z,8.57
2019-02-20T17:20:17.764Z,8.55
2019-02-20T17:22:46.604Z,8.54
2019-02-20T17:25:15.741Z,8.51
2019-02-20T17:27:44.413Z,8.47
2019-02-20T17:30:15.253Z,8.44
2019-02-20T17:32:44.227Z,8.40
2019-02-20T17:35:12.949Z,8.46
2019-02-20T17:37:41.511Z,8.46
2019-02-20T17:40:11.506Z,8.51
2019-02-20T17:42:41.492Z,8.51
2019-02-20T17:45:17.688Z,8.49
2019-02-20T17:47:46.576Z,8.46
2019-02-20T17:50:17.758Z,8.40
2019-02-20T17:52:46.402Z,8.36
2019-02-20T17:55:15.231Z,8.30
2019-02-20T17:57:43.910Z,8.22
2019-02-20T18:00:14.972Z,8.18
2019-02-20T18:02:43.502Z,8.18
2019-02-20T18:05:13.858Z,8.25
2019-02-20T18:07:49.452Z,8.27
2019-02-20T18:10:13.014Z,8.30
2019-02-20T18:12:41.547Z,8.35
2019-02-20T18:15:12.614Z,8.37
2019-02-20T18:17:41.287Z,8.34
2019-02-20T18:20:11.052Z,8.28
2019-02-20T18:22:39.573Z,8.19
2019-02-20T18:25:10.059Z,8.05
2019-02-20T18:27:38.634Z,7.89
2019-02-20T18:30:12.510Z,7.70
2019-02-20T18:32:40.452Z,7.51
2019-02-20T18:35:11.119Z,7.30
2019-02-20T18:37:40.013Z,7.19
2019-02-20T18:40:11.472Z,7.09
2019-02-20T18:42:39.940Z,7.02
2019-02-20T18:45:13.695Z,7.00
2019-02-20T18:47:42.368Z,6.95
2019-02-20T18:50:13.002Z,6.92
2019-02-20T18:52:41.681Z,6.86
2019-02-20T18:55:11.812Z,6.80
2019-02-20T18:57:42.411Z,6.76
2019-02-20T19:00:16.783Z,6.76
2019-02-20T19:02:45.630Z,6.78
2019-02-20T19:05:14.819Z,6.75
2019-02-20T19:07:43.409Z,6.67
2019-02-20T19:10:26.945Z,6.59
2019-02-20T19:13:28.228Z,6.49
2019-02-20T19:16:08.705Z,6.42
2019-02-20T19:19:02.545Z,6.31
2019-02-20T19:21:31.754Z,6.18
2019-02-20T19:24:18.279Z,5.89
2019-02-20T19:26:58.388Z,5.89
2019-02-20T19:29:53.890Z,5.78
2019-02-20T19:32:43.515Z,5.64
2019-02-20T19:35:30.402Z,5.51
2019-02-20T19:38:07.592Z,5.39
2019-02-20T19:40:44.618Z,5.28
2019-02-20T19:43:34.518Z,5.17
2019-02-20T19:46:21.133Z,5.10
2019-02-20T19:49:17.115Z,5.01
2019-02-20T19:52:16.098Z,4.96
2019-02-20T19:54:56.636Z,4.91
2019-02-20T19:57:34.403Z,4.90
2019-02-20T20:00:09.480Z,4.91
2019-02-20T20:03:10.559Z,4.93
2019-02-20T20:05:51.443Z,4.93
2019-02-20T20:08:42.909Z,4.95
2019-02-20T20:11:20.481Z,4.97
2019-02-20T20:14:14.150Z,4.98
2019-02-20T20:16:51.567Z,5.01
2019-02-20T20:19:23.350Z,5.01
2019-02-20T20:22:15.803Z,4.99
2019-02-20T20:25:08.721Z,4.97
2019-02-20T20:28:04.395Z,4.89
2019-02-20T20:30:39.147Z,4.81
2019-02-20T20:33:42.822Z,4.71
2019-02-20T20:36:38.454Z,4.65
2019-02-20T20:39:16.157Z,4.58
2019-02-20T20:42:00.359Z,4.49
2019-02-20T20:45:03.921Z,4.48
2019-02-20T20:47:53.624Z,4.48
2019-02-20T20:50:46.126Z,4.46
2019-02-20T20:53:17.854Z,4.46
2019-02-20T20:55:58.547Z,4.51
2019-02-20T20:58:39.646Z,4.56
2019-02-20T21:01:31.130Z,4.60
2019-02-20T21:04:19.620Z,4.61
2019-02-20T21:07:12.853Z,4.58
2019-02-20T21:09:59.558Z,4.52
2019-02-20T21:12:33.966Z,4.43
2019-02-20T21:15:06.340Z,4.34
2019-02-20T21:17:53.595Z,4.23
2019-02-20T21:20:28.084Z,4.15
2019-02-20T21:23:11.417Z,4.07
2019-02-20T21:25:48.768Z,3.99
2019-02-20T21:28:44.464Z,3.91
2019-02-20T21:31:53.677Z,3.83
2019-02-20T21:34:48.212Z,3.75
2019-02-20T21:37:45.299Z,3.67
2019-02-20T21:40:38.113Z,3.63
2019-02-20T21:43:29.370Z,3.57
2019-02-20T21:46:21.983Z,3.57
2019-02-20T21:49:19.685Z,3.66
2019-02-20T21:52:03.488Z,3.80
2019-02-20T21:54:40.946Z,3.94
2019-02-20T21:57:35.172Z,4.11
2019-02-20T22:00:28.067Z,4.23
2019-02-20T22:03:12.007Z,4.40
2019-02-20T22:06:07.604Z,4.57
2019-02-20T22:09:07.963Z,4.77
2019-02-20T22:11:45.330Z,5.02
2019-02-20T22:14:22.696Z,5.30
2019-02-20T22:16:57.273Z,5.48
2019-02-20T22:19:29.715Z,5.68
2019-02-20T22:22:17.664Z,5.87
2019-02-20T22:24:54.731Z,6.02
2019-02-20T22:27:32.242Z,6.21
2019-02-20T22:30:31.236Z,6.35
2019-02-20T22:33:26.974Z,6.47
2019-02-20T22:36:10.578Z,6.58
2019-02-20T22:39:15.322Z,6.66
2019-02-20T22:41:50.522Z,6.75
2019-02-20T22:44:38.131Z,6.78
2019-02-20T22:47:14.937Z,6.84
2019-02-20T22:50:00.965Z,6.88
2019-02-20T22:52:44.564Z,6.91
2019-02-20T22:55:24.792Z,6.93
2019-02-20T22:58:02.421Z,6.97
2019-02-20T23:00:53.700Z,7.00
2019-02-20T23:03:34.265Z,7.01
2019-02-20T23:06:22.419Z,7.05
2019-02-20T23:09:05.130Z,7.07
2019-02-20T23:11:39.363Z,7.07
2019-02-20T23:14:31.966Z,7.06
2019-02-20T23:17:00.613Z,7.06
2019-02-20T23:19:29.150Z,7.05
2019-02-20T23:21:57.741Z,7.04
2019-02-20T23:24:26.231Z,7.03
2019-02-20T23:26:54.765Z,7.03
2019-02-20T23:29:23.460Z,6.99
2019-02-20T23:31:51.906Z,6.95
2019-02-20T23:34:20.433Z,6.89
2019-02-20T23:36:48.928Z,6.81
2019-02-20T23:39:17.459Z,6.73
2019-02-20T23:41:45.971Z,6.66
2019-02-20T23:44:14.438Z,6.61
2019-02-20T23:46:42.998Z,6.51
2019-02-20T23:49:11.522Z,6.42
2019-02-20T23:51:40.030Z,6.34
2019-02-20T23:54:08.510Z,6.30
2019-02-20T23:56:37.088Z,6.27
2019-02-20T23:59:05.574Z,6.24
